Time;durP1;ratioP1;P1;durP2;ratioP2;P2;SDS_P1;SDS_P2;PMS_P1;PMS_P2;Temp;Humidity;BMP_temperature;BMP_pressure;BME280_temperature;BME280_humidity;BME280_pressure;Samples;Min_cycle;Max_cycle;Signal;HPM_P1;HPM_P2
2023/09/08 00:02:01;;;;;;;11.05;9.75;;;18.60;81.80;;;;;;4943399;28;20038;-77
2023/09/08 00:04:27;;;;;;;10.52;9.52;;;18.60;81.90;;;;;;4926941;28;20105;-79
2023/09/08 00:06:52;;;;;;;13.00;9.85;;;18.60;81.90;;;;;;4959908;28;20096;-80
2023/09/08 00:09:18;;;;;;;11.05;9.93;;;18.60;81.90;;;;;;4927725;28;20039;-79
2023/09/08 00:11:44;;;;;;;11.20;10.05;;;18.60;82.00;;;;;;4927511;28;20132;-82
2023/09/08 00:14:10;;;;;;;12.98;10.73;;;18.60;82.20;;;;;;4959196;28;20046;-80
2023/09/08 00:16:37;;;;;;;10.73;9.70;;;18.50;82.20;;;;;;4943511;28;20141;-78
2023/09/08 00:19:02;;;;;;;11.85;10.65;;;18.50;82.20;;;;;;4943230;28;20399;-80
2023/09/08 00:21:28;;;;;;;12.05;9.77;;;18.50;82.30;;;;;;4943219;28;20050;-79
2023/09/08 00:23:54;;;;;;;11.98;10.68;;;18.50;82.40;;;;;;4959123;28;20039;-80
2023/09/08 00:26:20;;;;;;;10.73;9.82;;;18.40;82.40;;;;;;4958977;28;20039;-81
2023/09/08 00:28:47;;;;;;;11.90;10.43;;;18.40;82.50;;;;;;4959017;28;20073;-83
2023/09/08 00:31:12;;;;;;;12.43;10.00;;;18.40;82.60;;;;;;4943044;28;20118;-77
2023/09/08 00:33:39;;;;;;;10.90;9.90;;;18.50;82.60;;;;;;4943193;28;20081;-79
2023/09/08 00:36:04;;;;;;;12.90;10.73;;;18.50;82.50;;;;;;4942914;28;20495;-80
2023/09/08 00:38:30;;;;;;;13.02;10.48;;;18.50;82.70;;;;;;4927504;28;20038;-81
2023/09/08 00:40:56;;;;;;;11.70;10.32;;;18.50;82.70;;;;;;4943241;28;20494;-81
2023/09/08 00:43:21;;;;;;;10.18;9.18;;;18.50;82.60;;;;;;4943131;28;20086;-81
2023/09/08 00:45:48;;;;;;;11.98;10.75;;;18.40;82.60;;;;;;4943184;28;20054;-81
2023/09/08 00:48:14;;;;;;;10.73;9.63;;;18.40;82.80;;;;;;4958867;28;20172;-78
2023/09/08 00:50:40;;;;;;;11.27;10.10;;;18.30;82.90;;;;;;4942854;28;20090;-82
2023/09/08 00:53:07;;;;;;;11.73;10.50;;;18.30;82.90;;;;;;4958906;28;20050;-82
2023/09/08 00:55:33;;;;;;;11.95;10.82;;;18.30;83.10;;;;;;4942577;28;20043;-80
2023/09/08 00:58:00;;;;;;;11.40;10.20;;;18.30;83.50;;;;;;4958661;28;20047;-79
2023/09/08 01:00:26;;;;;;;11.10;10.10;;;18.30;83.30;;;;;;4958707;28;20042;-80
2023/09/08 01:02:52;;;;;;;11.23;10.02;;;18.30;83.30;;;;;;4959088;28;20039;-81
2023/09/08 01:05:18;;;;;;;14.60;10.07;;;18.30;83.20;;;;;;4958431;28;20411;-82
2023/09/08 01:07:45;;;;;;;12.60;11.00;;;18.20;83.40;;;;;;4958528;28;20050;-81
2023/09/08 01:10:11;;;;;;;11.57;10.57;;;18.20;83.40;;;;;;4942908;28;20038;-80
2023/09/08 01:12:37;;;;;;;11.95;10.43;;;18.20;83.50;;;;;;4942788;28;20398;-79
2023/09/08 01:15:06;;;;;;;11.90;10.70;;;18.20;83.50;;;;;;4958392;28;20042;-78
2023/09/08 01:17:33;;;;;;;11.95;10.75;;;18.20;83.50;;;;;;4942633;28;20108;-83
2023/09/08 01:20:05;;;;;;;11.38;10.30;;;18.20;83.50;;;;;;4958451;28;20043;-80
2023/09/08 01:22:37;;;;;;;13.38;10.70;;;18.20;83.50;;;;;;4958462;28;20547;-80
2023/09/08 01:25:19;;;;;;;12.95;11.57;;;18.10;83.50;;;;;;4958268;28;20047;-83
2023/09/08 01:27:53;;;;;;;13.07;11.60;;;18.10;83.70;;;;;;4926468;28;20042;-79
2023/09/08 01:30:21;;;;;;;14.07;11.10;;;18.20;83.70;;;;;;4957999;28;20043;-81
2023/09/08 01:32:48;;;;;;;11.60;10.48;;;18.10;83.70;;;;;;4941984;28;20041;-81
2023/09/08 01:35:14;;;;;;;15.20;11.32;;;18.10;83.70;;;;;;4942000;28;20050;-80
2023/09/08 01:37:41;;;;;;;13.18;11.80;;;18.00;83.80;;;;;;4942080;28;20069;-80
2023/09/08 01:40:08;;;;;;;12.27;11.00;;;18.00;83.90;;;;;;4957875;28;20126;-80
2023/09/08 01:42:34;;;;;;;12.70;10.90;;;18.00;83.90;;;;;;4957703;28;20514;-81
2023/09/08 01:45:00;;;;;;;12.25;11.07;;;18.10;83.80;;;;;;4941940;28;20043;-80
2023/09/08 01:47:25;;;;;;;12.18;10.98;;;18.00;83.90;;;;;;4941825;28;20162;-78
2023/09/08 01:49:51;;;;;;;12.70;11.40;;;18.00;83.90;;;;;;4941913;28;20483;-83
2023/09/08 01:52:17;;;;;;;12.40;11.20;;;18.00;84.00;;;;;;4941742;28;20399;-81
2023/09/08 01:54:42;;;;;;;13.52;12.23;;;18.00;84.00;;;;;;4926028;28;20046;-80
2023/09/08 01:57:08;;;;;;;14.27;11.85;;;18.00;84.00;;;;;;4957447;28;20047;-78
2023/09/08 01:59:34;;;;;;;12.57;11.27;;;17.90;84.00;;;;;;4941779;28;20050;-81
2023/09/08 02:02:00;;;;;;;13.45;12.05;;;17.90;84.20;;;;;;4941565;28;20043;-83
2023/09/08 02:04:26;;;;;;;12.45;11.15;;;17.90;84.20;;;;;;4957099;28;20070;-80
2023/09/08 02:06:51;;;;;;;12.60;11.38;;;17.90;84.20;;;;;;4957436;28;20051;-83
2023/09/08 02:09:17;;;;;;;15.60;11.70;;;17.80;84.30;;;;;;4941294;28;20519;-79
2023/09/08 02:11:43;;;;;;;14.05;11.88;;;17.80;84.40;;;;;;4957275;28;20074;-79
2023/09/08 02:14:08;;;;;;;15.38;12.50;;;17.70;84.40;;;;;;4941314;28;20158;-82
2023/09/08 02:16:34;;;;;;;13.30;12.00;;;17.70;84.50;;;;;;4941398;28;20054;-79
2023/09/08 02:19:00;;;;;;;14.35;12.57;;;17.70;84.50;;;;;;4957417;28;20038;-79
2023/09/08 02:21:25;;;;;;;13.57;12.25;;;17.60;84.70;;;;;;4957343;28;20483;-82
2023/09/08 02:23:51;;;;;;;13.77;12.32;;;17.70;84.80;;;;;;4941145;28;20484;-81
2023/09/08 02:26:17;;;;;;;14.70;11.30;;;17.60;84.80;;;;;;4924861;28;20085;-81
2023/09/08 02:28:42;;;;;;;14.43;11.80;;;17.60;84.80;;;;;;4957143;28;20043;-82
2023/09/08 02:31:09;;;;;;;12.88;11.63;;;17.60;84.80;;;;;;4957047;28;20039;-79
2023/09/08 02:33:34;;;;;;;13.57;12.18;;;17.50;85.00;;;;;;4957098;28;20074;-81
2023/09/08 02:36:07;;;;;;;13.45;12.15;;;17.50;85.00;;;;;;4941001;28;20074;-82
2023/09/08 02:38:33;;;;;;;16.15;12.40;;;17.50;85.10;;;;;;4941312;28;20043;-81
2023/09/08 02:40:59;;;;;;;15.70;12.73;;;17.40;85.10;;;;;;4957020;28;20125;-80
2023/09/08 02:43:24;;;;;;;14.25;12.40;;;17.40;85.10;;;;;;4957009;28;20081;-82
2023/09/08 02:45:50;;;;;;;14.35;12.85;;;17.30;85.20;;;;;;4941266;28;20046;-78
2023/09/08 02:48:16;;;;;;;13.68;12.25;;;17.30;85.00;;;;;;4941275;28;20415;-80
2023/09/08 02:50:43;;;;;;;13.27;11.98;;;17.30;85.20;;;;;;4941082;28;20173;-81
2023/09/08 02:53:09;;;;;;;14.48;12.70;;;17.20;85.10;;;;;;4941360;28;20038;-79
2023/09/08 02:55:35;;;;;;;14.15;12.73;;;17.20;85.20;;;;;;4941024;28;20049;-82
2023/09/08 02:58:01;;;;;;;15.15;13.55;;;17.20;85.20;;;;;;4941096;28;20125;-82
2023/09/08 03:00:27;;;;;;;14.40;12.90;;;17.20;85.30;;;;;;4957244;28;20042;-79
2023/09/08 03:02:52;;;;;;;14.77;13.30;;;17.20;85.40;;;;;;4925158;28;20050;-79
2023/09/08 03:05:18;;;;;;;14.73;12.30;;;17.20;85.50;;;;;;4953332;28;20059;-78
2023/09/08 03:07:48;;;;;;;14.95;12.63;;;17.20;85.50;;;;;;4906105;29;20106;-82
2023/09/08 03:10:14;;;;;;;16.88;14.40;;;17.10;85.50;;;;;;4937757;29;20100;-80
2023/09/08 03:12:39;;;;;;;15.00;13.50;;;17.10;85.60;;;;;;4921849;29;20039;-78
2023/09/08 03:15:05;;;;;;;13.00;11.80;;;17.10;85.50;;;;;;4937709;29;20098;-79
2023/09/08 03:17:31;;;;;;;15.30;13.65;;;17.00;85.50;;;;;;4921834;29;20138;-80
2023/09/08 03:19:57;;;;;;;16.05;13.68;;;17.00;85.50;;;;;;4953777;28;20126;-81
2023/09/08 03:22:24;;;;;;;15.35;13.75;;;17.00;85.60;;;;;;4937485;29;20054;-83
2023/09/08 03:24:50;;;;;;;14.57;13.10;;;17.00;85.60;;;;;;4953748;28;20051;-78
2023/09/08 03:27:16;;;;;;;14.20;12.65;;;17.00;85.70;;;;;;4953525;29;20059;-81
2023/09/08 03:29:41;;;;;;;16.65;14.38;;;17.00;85.70;;;;;;4953606;29;20103;-82
2023/09/08 03:32:07;;;;;;;15.30;13.80;;;16.90;85.80;;;;;;4937713;29;20404;-81
2023/09/08 03:34:33;;;;;;;15.75;14.25;;;16.90;85.90;;;;;;4937659;29;20039;-77
2023/09/08 03:36:59;;;;;;;14.52;13.15;;;17.00;86.10;;;;;;4953699;28;20446;-81
2023/09/08 03:39:25;;;;;;;16.88;12.50;;;16.90;86.00;;;;;;4956320;29;20126;-81
2023/09/08 03:41:50;;;;;;;15.10;13.70;;;17.00;86.00;;;;;;4925213;29;20035;-77
2023/09/08 03:44:16;;;;;;;15.93;14.18;;;16.90;85.90;;;;;;4941029;28;20095;-80
2023/09/08 03:46:42;;;;;;;14.95;13.55;;;16.90;85.90;;;;;;4940573;29;20046;-79
2023/09/08 03:49:08;;;;;;;15.98;14.23;;;16.90;86.00;;;;;;4940716;29;20118;-77
2023/09/08 03:51:33;;;;;;;14.80;13.40;;;16.90;86.10;;;;;;4924938;29;20126;-80
2023/09/08 03:53:59;;;;;;;17.33;13.35;;;16.90;86.20;;;;;;4940789;28;20047;-79
2023/09/08 03:56:25;;;;;;;14.70;13.27;;;16.90;86.20;;;;;;4940630;29;20047;-79
2023/09/08 03:58:51;;;;;;;14.20;12.80;;;16.90;86.00;;;;;;4956520;28;20102;-79
2023/09/08 04:01:17;;;;;;;14.98;13.57;;;16.80;86.00;;;;;;4940846;29;20390;-82
2023/09/08 04:03:43;;;;;;;15.40;13.35;;;16.80;86.10;;;;;;4956447;29;20067;-80
2023/09/08 04:06:09;;;;;;;15.63;13.75;;;16.80;86.10;;;;;;4940245;29;20138;-77
2023/09/08 04:08:35;;;;;;;14.25;12.73;;;16.80;86.10;;;;;;4956844;29;20451;-78
2023/09/08 04:11:00;;;;;;;15.48;13.98;;;16.80;86.20;;;;;;4924883;29;20400;-80
2023/09/08 04:13:26;;;;;;;14.45;12.95;;;16.80;86.30;;;;;;4949032;28;20497;-78
2023/09/08 04:15:52;;;;;;;16.67;15.07;;;16.90;86.30;;;;;;4943472;28;20046;-80
2023/09/08 04:18:17;;;;;;;14.57;13.10;;;16.80;86.30;;;;;;4959243;28;20093;-80
2023/09/08 04:20:43;;;;;;;18.35;13.88;;;16.80;86.50;;;;;;4927741;28;20069;-78
2023/09/08 04:23:09;;;;;;;15.38;13.63;;;16.80;86.40;;;;;;4943128;28;20056;-80
2023/09/08 04:25:36;;;;;;;15.73;14.13;;;16.80;86.40;;;;;;4975131;28;20117;-80
2023/09/08 04:28:02;;;;;;;15.75;14.30;;;16.80;86.40;;;;;;4927419;28;20564;-77
2023/09/08 04:30:28;;;;;;;17.92;14.77;;;16.70;86.50;;;;;;4960843;28;20407;-76
2023/09/08 04:32:53;;;;;;;17.00;15.30;;;16.70;86.60;;;;;;4955536;29;20039;-78
2023/09/08 04:35:19;;;;;;;16.08;14.40;;;16.70;86.60;;;;;;4979707;28;20036;-78
2023/09/08 04:37:45;;;;;;;16.90;15.15;;;16.70;86.70;;;;;;4939591;29;20467;-79
2023/09/08 04:40:10;;;;;;;15.02;13.68;;;16.60;86.80;;;;;;4939195;29;20039;-76
2023/09/08 04:42:36;;;;;;;16.05;14.45;;;16.60;86.80;;;;;;4988030;28;20050;-79
2023/09/08 04:45:02;;;;;;;16.17;14.48;;;16.60;86.80;;;;;;4971603;28;20389;-79
2023/09/08 04:47:28;;;;;;;17.35;14.90;;;16.60;86.80;;;;;;4955313;28;20043;-78
2023/09/08 04:49:53;;;;;;;16.95;15.07;;;16.60;86.70;;;;;;4954824;28;20043;-80
2023/09/08 04:52:19;;;;;;;19.15;16.23;;;16.60;86.80;;;;;;4971657;28;20126;-81
2023/09/08 04:54:45;;;;;;;18.15;16.38;;;16.60;86.90;;;;;;4986896;28;20065;-85
2023/09/08 04:57:11;;;;;;;18.35;15.73;;;16.50;86.90;;;;;;4939419;29;20043;-83
2023/09/08 04:59:39;;;;;;;17.65;15.80;;;16.50;86.80;;;;;;4926278;29;20130;-77
2023/09/08 05:02:04;;;;;;;18.67;16.90;;;16.50;87.00;;;;;;4982478;28;20443;-79
2023/09/08 05:04:30;;;;;;;20.10;17.40;;;16.50;87.00;;;;;;4960328;29;20099;-79
2023/09/08 05:06:56;;;;;;;17.20;15.50;;;16.50;87.10;;;;;;4950287;29;20051;-79
2023/09/08 05:09:21;;;;;;;23.42;16.17;;;16.50;87.10;;;;;;4947466;29;20049;-80
2023/09/08 05:11:47;;;;;;;18.60;15.82;;;16.50;87.80;;;;;;4949274;29;20053;-81
2023/09/08 05:14:13;;;;;;;17.63;15.55;;;16.60;87.80;;;;;;4976757;28;20062;-81
2023/09/08 05:16:49;;;;;;;17.90;16.10;;;16.60;88.20;;;;;;4964689;29;20031;-81
2023/09/08 05:19:15;;;;;;;19.55;16.13;;;16.60;88.60;;;;;;4962757;29;20031;-79
2023/09/08 05:21:43;;;;;;;16.50;14.82;;;16.70;88.60;;;;;;4964801;28;20051;-81
2023/09/08 05:24:09;;;;;;;18.45;16.52;;;16.70;88.60;;;;;;4980518;28;20090;-82
2023/09/08 05:26:38;;;;;;;15.65;14.15;;;16.80;88.60;;;;;;4964311;28;20031;-82
2023/09/08 05:29:04;;;;;;;15.85;14.25;;;16.80;88.40;;;;;;4964281;29;20028;-79
2023/09/08 05:31:30;;;;;;;16.65;14.98;;;16.80;88.20;;;;;;4963957;28;20102;-81
2023/09/08 05:33:55;;;;;;;17.58;15.77;;;16.90;88.00;;;;;;4939942;28;20051;-78
2023/09/08 05:36:21;;;;;;;15.40;13.07;;;16.90;87.80;;;;;;4923778;29;20046;-80
2023/09/08 05:38:47;;;;;;;11.65;10.18;;;16.90;87.80;;;;;;4924007;29;20503;-82
2023/09/08 05:41:12;;;;;;;17.00;15.40;;;16.90;87.60;;;;;;4954917;28;20125;-78
2023/09/08 05:43:38;;;;;;;16.85;15.18;;;16.90;87.30;;;;;;4953000;28;20035;-77
2023/09/08 05:46:04;;;;;;;16.90;14.18;;;17.00;87.70;;;;;;4975384;28;20100;-79
2023/09/08 05:48:29;;;;;;;16.75;15.00;;;17.00;87.50;;;;;;4958250;28;20047;-79
2023/09/08 05:50:55;;;;;;;16.77;15.05;;;17.00;87.40;;;;;;4958350;28;20045;-77
2023/09/08 05:53:21;;;;;;;16.70;14.98;;;17.00;87.30;;;;;;4973723;28;20034;-78
2023/09/08 05:55:47;;;;;;;17.42;15.63;;;17.10;87.40;;;;;;4973386;28;20050;-80
2023/09/08 05:58:13;;;;;;;18.75;16.23;;;17.10;87.30;;;;;;4942061;28;20129;-82
2023/09/08 06:00:38;;;;;;;18.15;16.25;;;17.10;87.10;;;;;;4940962;28;20077;-82
2023/09/08 06:03:05;;;;;;;17.17;15.52;;;17.10;87.70;;;;;;4957355;28;20081;-83
2023/09/08 06:05:30;;;;;;;22.83;16.58;;;17.20;87.90;;;;;;4957404;28;20047;-80
2023/09/08 06:07:56;;;;;;;18.63;16.00;;;17.20;88.10;;;;;;4957162;28;20142;-82
2023/09/08 06:10:22;;;;;;;19.67;16.70;;;17.20;88.40;;;;;;4957605;28;20126;-80
2023/09/08 06:12:50;;;;;;;24.27;16.00;;;17.20;88.50;;;;;;4941345;28;20081;-77
2023/09/08 06:15:17;;;;;;;17.33;15.63;;;17.30;88.60;;;;;;4973102;28;20050;-75
2023/09/08 06:17:43;;;;;;;18.00;16.20;;;17.30;88.60;;;;;;4973298;28;20102;-80
2023/09/08 06:20:09;;;;;;;17.85;16.05;;;17.40;88.20;;;;;;4973470;28;20513;-79
2023/09/08 06:22:35;;;;;;;18.23;16.27;;;17.40;88.60;;;;;;4973110;28;20078;-83
2023/09/08 06:25:00;;;;;;;18.20;16.27;;;17.40;88.40;;;;;;4941040;28;20077;-80
2023/09/08 06:27:26;;;;;;;17.23;15.43;;;17.50;88.50;;;;;;4972716;28;20101;-78
2023/09/08 06:29:52;;;;;;;17.08;15.30;;;17.50;88.30;;;;;;4957226;28;20038;-83
2023/09/08 06:32:18;;;;;;;18.27;16.20;;;17.60;88.00;;;;;;4941555;28;20045;-80
2023/09/08 06:34:44;;;;;;;17.77;15.68;;;17.60;87.90;;;;;;4941152;28;20045;-78
2023/09/08 06:37:10;;;;;;;17.38;15.65;;;17.60;87.70;;;;;;4925595;28;20113;-82
2023/09/08 06:39:36;;;;;;;20.45;16.33;;;17.70;87.80;;;;;;4941399;28;20403;-80
2023/09/08 06:42:02;;;;;;;17.38;15.82;;;17.80;87.70;;;;;;4973133;28;20047;-79
2023/09/08 06:44:28;;;;;;;20.67;16.35;;;17.90;87.50;;;;;;4956925;28;20047;-81
2023/09/08 06:46:53;;;;;;;17.65;15.82;;;17.90;87.40;;;;;;4957474;28;20042;-80
2023/09/08 06:49:19;;;;;;;18.02;16.23;;;18.00;87.30;;;;;;4957056;28;20034;-79
2023/09/08 06:51:47;;;;;;;16.85;15.30;;;18.00;87.30;;;;;;4957327;28;20082;-82
2023/09/08 06:54:13;;;;;;;17.98;16.08;;;18.10;87.50;;;;;;4973039;28;20061;-80
2023/09/08 06:56:38;;;;;;;18.65;15.65;;;18.20;87.20;;;;;;4956753;28;20491;-79
2023/09/08 06:59:04;;;;;;;18.83;16.83;;;18.30;87.00;;;;;;4957073;28;20090;-80
2023/09/08 07:01:30;;;;;;;15.95;14.32;;;18.30;87.10;;;;;;4956909;28;20050;-79
2023/09/08 07:03:56;;;;;;;18.33;15.80;;;18.40;87.10;;;;;;4973004;28;20062;-80
2023/09/08 07:06:22;;;;;;;16.67;14.93;;;18.50;86.70;;;;;;4972563;28;20057;-78
2023/09/08 07:08:50;;;;;;;18.17;15.60;;;18.60;86.50;;;;;;4972912;28;20102;-79
2023/09/08 07:11:16;;;;;;;18.13;15.82;;;18.70;86.80;;;;;;4956591;28;20550;-78
2023/09/08 07:13:42;;;;;;;23.45;16.20;;;18.80;87.00;;;;;;4944506;28;20074;-81
2023/09/08 07:16:07;;;;;;;16.55;14.93;;;18.90;86.70;;;;;;4976740;28;20089;-79
2023/09/08 07:18:35;;;;;;;17.40;15.68;;;19.00;86.60;;;;;;4960756;28;20043;-80
2023/09/08 07:21:02;;;;;;;14.85;13.30;;;19.10;86.40;;;;;;4976884;28;20402;-79
2023/09/08 07:23:28;;;;;;;16.80;15.10;;;19.20;86.00;;;;;;4976492;28;20046;-79
2023/09/08 07:25:53;;;;;;;15.75;14.13;;;19.30;85.80;;;;;;4976173;28;20038;-79
2023/09/08 07:28:19;;;;;;;17.33;14.80;;;19.50;85.80;;;;;;4944477;28;20031;-83
2023/09/08 07:30:45;;;;;;;18.30;15.48;;;19.60;85.70;;;;;;4960370;28;20546;-80
2023/09/08 07:33:11;;;;;;;16.20;14.48;;;19.70;84.90;;;;;;4944678;28;20034;-81
2023/09/08 07:35:38;;;;;;;17.60;14.20;;;19.70;82.80;;;;;;4943281;28;20126;-80
2023/09/08 07:38:04;;;;;;;15.15;13.55;;;19.90;83.10;;;;;;4944375;28;20521;-81
2023/09/08 07:40:31;;;;;;;16.50;13.48;;;19.90;82.60;;;;;;4962311;28;20046;-82
2023/09/08 07:42:57;;;;;;;17.35;15.20;;;20.00;82.50;;;;;;4987579;28;20066;-81
2023/09/08 07:45:23;;;;;;;16.42;14.75;;;20.20;82.90;;;;;;4967772;28;20042;-81
2023/09/08 07:47:48;;;;;;;15.13;13.48;;;20.30;83.00;;;;;;4981229;28;20070;-81
2023/09/08 07:50:25;;;;;;;14.57;13.23;;;20.40;82.60;;;;;;4929853;28;20039;-81
2023/09/08 07:52:53;;;;;;;15.40;13.88;;;20.50;82.00;;;;;;4946344;28;20062;-84
2023/09/08 07:55:22;;;;;;;15.40;13.90;;;20.60;81.90;;;;;;4978241;28;20085;-82
2023/09/08 07:57:49;;;;;;;15.32;13.57;;;20.60;81.70;;;;;;4960088;28;20046;-81
2023/09/08 08:00:17;;;;;;;15.60;14.10;;;20.80;81.60;;;;;;4960104;28;20043;-80
2023/09/08 08:02:47;;;;;;;14.90;13.45;;;20.90;81.60;;;;;;4976054;28;20043;-81
2023/09/08 08:05:12;;;;;;;15.32;13.82;;;20.90;81.50;;;;;;4975881;28;20061;-80
2023/09/08 08:07:39;;;;;;;15.70;14.05;;;21.00;81.30;;;;;;4959417;28;20478;-82
2023/09/08 08:10:06;;;;;;;14.23;12.20;;;21.20;80.90;;;;;;4943639;28;20066;-81
2023/09/08 08:12:32;;;;;;;15.85;14.15;;;21.40;81.20;;;;;;4959479;28;20078;-82
2023/09/08 08:14:58;;;;;;;15.93;13.95;;;21.50;81.00;;;;;;4943578;28;20038;-81
2023/09/08 08:17:26;;;;;;;14.18;12.77;;;21.60;79.70;;;;;;4927951;28;20043;-81
2023/09/08 08:19:52;;;;;;;15.02;13.50;;;21.70;79.10;;;;;;4959567;28;20051;-80
2023/09/08 08:22:18;;;;;;;14.63;13.02;;;21.80;78.50;;;;;;4959654;28;20077;-82
2023/09/08 08:24:44;;;;;;;14.93;13.48;;;21.90;79.20;;;;;;4958582;28;20055;-78
2023/09/08 08:27:09;;;;;;;14.82;13.32;;;22.00;78.30;;;;;;4975318;28;20129;-80
2023/09/08 08:29:35;;;;;;;14.13;12.55;;;22.10;77.70;;;;;;4943329;28;20081;-79
2023/09/08 08:32:01;;;;;;;14.68;12.00;;;22.30;77.90;;;;;;4959120;28;20122;-79
2023/09/08 08:34:27;;;;;;;14.07;12.68;;;22.40;77.00;;;;;;4959054;28;20502;-79
2023/09/08 08:36:52;;;;;;;14.70;12.95;;;22.50;76.10;;;;;;4975277;28;20048;-79
2023/09/08 08:39:18;;;;;;;15.13;13.38;;;22.50;76.30;;;;;;4975905;28;20057;-78
2023/09/08 08:41:44;;;;;;;14.30;12.57;;;22.60;76.10;;;;;;4959292;28;20125;-78
2023/09/08 08:44:10;;;;;;;16.23;12.63;;;22.80;76.20;;;;;;4975035;28;20491;-77
2023/09/08 08:46:38;;;;;;;18.42;12.35;;;22.80;76.10;;;;;;4975134;28;20055;-80
2023/09/08 08:49:04;;;;;;;15.23;13.60;;;22.90;75.50;;;;;;4975181;28;20098;-79
2023/09/08 08:51:35;;;;;;;13.93;12.52;;;23.00;74.50;;;;;;4958542;28;20053;-81
2023/09/08 08:54:04;;;;;;;13.27;11.88;;;23.10;75.30;;;;;;4975061;28;20039;-78
2023/09/08 08:56:31;;;;;;;16.35;13.38;;;23.30;75.60;;;;;;4974618;28;20089;-80
2023/09/08 08:59:01;;;;;;;15.45;13.27;;;23.40;73.80;;;;;;4958427;28;20057;-81
2023/09/08 09:01:28;;;;;;;14.30;12.73;;;23.50;74.30;;;;;;4942463;28;20094;-81
2023/09/08 09:03:55;;;;;;;14.20;12.43;;;23.60;74.60;;;;;;4958779;28;20057;-81
2023/09/08 09:06:21;;;;;;;14.38;12.30;;;23.80;74.50;;;;;;4973915;28;20051;-81
2023/09/08 09:08:46;;;;;;;14.77;11.57;;;23.90;74.10;;;;;;4974811;28;20105;-82
2023/09/08 09:11:12;;;;;;;16.95;12.93;;;24.00;73.90;;;;;;4942879;28;20043;-83
2023/09/08 09:13:39;;;;;;;16.40;12.00;;;24.10;73.30;;;;;;4958833;28;20046;-83
2023/09/08 09:16:10;;;;;;;12.50;11.25;;;24.30;72.90;;;;;;4942631;28;20070;-82
2023/09/08 09:18:54;;;;;;;14.40;11.82;;;24.30;71.20;;;;;;4942850;28;20122;-81
2023/09/08 09:21:20;;;;;;;15.25;11.05;;;24.30;70.90;;;;;;4958207;28;20043;-79
2023/09/08 09:23:46;;;;;;;15.30;10.77;;;24.40;71.40;;;;;;4958245;28;20053;-82
2023/09/08 09:26:24;;;;;;;16.65;12.10;;;24.50;71.20;;;;;;4942387;28;20038;-82
2023/09/08 09:28:51;;;;;;;12.45;11.25;;;24.60;70.00;;;;;;4974333;28;20136;-84
2023/09/08 09:31:25;;;;;;;12.27;10.73;;;24.70;70.80;;;;;;4974193;28;20094;-82
2023/09/08 09:34:11;;;;;;;12.45;11.13;;;24.90;71.10;;;;;;4959334;28;20054;-82
2023/09/08 09:36:42;;;;;;;12.25;10.93;;;25.00;68.60;;;;;;4956810;28;20056;-83
2023/09/08 09:39:08;;;;;;;13.98;11.75;;;25.10;69.80;;;;;;4958178;28;20090;-83
2023/09/08 09:41:34;;;;;;;11.35;10.18;;;25.20;68.40;;;;;;4942102;28;20050;-84
2023/09/08 09:44:00;;;;;;;13.05;11.27;;;25.20;69.00;;;;;;4942229;28;20050;-84
2023/09/08 09:46:28;;;;;;;14.60;11.32;;;25.40;68.70;;;;;;4942069;28;20414;-84
2023/09/08 09:48:58;;;;;;;12.82;11.52;;;25.50;68.00;;;;;;4957970;28;20097;-83
2023/09/08 09:51:24;;;;;;;12.80;11.35;;;25.50;67.50;;;;;;4958035;28;20399;-83
2023/09/08 09:53:50;;;;;;;11.93;10.73;;;25.60;68.20;;;;;;4957747;28;20055;-84
2023/09/08 09:56:18;;;;;;;12.80;10.98;;;25.70;68.30;;;;;;4957586;28;20043;-83
2023/09/08 09:58:44;;;;;;;12.00;10.75;;;25.80;68.50;;;;;;4973585;28;20090;-78
2023/09/08 10:01:11;;;;;;;11.40;10.20;;;25.90;66.90;;;;;;4973794;28;20109;-77
2023/09/08 10:03:39;;;;;;;11.73;9.77;;;25.90;65.50;;;;;;4973449;28;20074;-77
2023/09/08 10:06:06;;;;;;;10.45;9.52;;;26.00;65.90;;;;;;4973054;28;20043;-78
2023/09/08 10:08:36;;;;;;;11.93;10.73;;;26.20;65.90;;;;;;4973212;28;20495;-81
2023/09/08 10:11:06;;;;;;;11.88;10.77;;;26.30;66.50;;;;;;4974172;28;20109;-78
2023/09/08 10:13:42;;;;;;;9.52;8.52;;;26.40;66.00;;;;;;4973580;28;20038;-79
2023/09/08 10:16:23;;;;;;;13.10;9.93;;;26.60;66.50;;;;;;4957784;28;20042;-80
2023/09/08 10:18:51;;;;;;;10.70;9.60;;;26.70;64.60;;;;;;4973101;28;20491;-82
2023/09/08 10:21:21;;;;;;;10.73;9.30;;;26.90;65.20;;;;;;4957052;28;20047;-78
2023/09/08 10:23:59;;;;;;;11.20;9.70;;;26.90;64.40;;;;;;4957276;28;20491;-78
2023/09/08 10:26:27;;;;;;;9.98;8.48;;;27.10;64.20;;;;;;4972915;28;20554;-81
2023/09/08 10:28:57;;;;;;;9.73;8.25;;;27.10;62.80;;;;;;4973669;28;20395;-84
2023/09/08 10:31:28;;;;;;;10.50;9.48;;;27.30;62.80;;;;;;4957962;28;20483;-82
2023/09/08 10:33:57;;;;;;;9.40;8.40;;;27.30;62.50;;;;;;4957295;28;20035;-82
2023/09/08 10:36:24;;;;;;;13.18;8.52;;;27.40;62.10;;;;;;4973375;28;20173;-82
2023/09/08 10:38:51;;;;;;;10.43;8.55;;;27.50;62.70;;;;;;4955424;28;20130;-82
2023/09/08 10:41:17;;;;;;;11.07;8.27;;;27.80;62.70;;;;;;4957096;28;20096;-80
2023/09/08 10:43:54;;;;;;;9.50;8.52;;;27.90;62.00;;;;;;4956786;28;20042;-80
2023/09/08 10:46:26;;;;;;;9.95;8.30;;;28.10;61.80;;;;;;4956826;28;20039;-83
2023/09/08 10:48:54;;;;;;;10.05;7.35;;;28.30;60.90;;;;;;4976996;28;20050;-80
2023/09/08 10:51:22;;;;;;;8.80;7.57;;;28.40;61.00;;;;;;4976715;28;20491;-81
2023/09/08 10:53:49;;;;;;;9.35;7.93;;;28.50;59.70;;;;;;4976780;28;20511;-83
2023/09/08 10:56:16;;;;;;;10.65;7.25;;;28.40;59.20;;;;;;4960971;28;20039;-83
2023/09/08 10:58:45;;;;;;;8.23;6.72;;;28.60;59.50;;;;;;4960768;28;20064;-81
2023/09/08 11:01:17;;;;;;;8.15;6.65;;;28.80;58.80;;;;;;4976785;28;20039;-81
2023/09/08 11:03:46;;;;;;;7.63;6.68;;;28.90;56.90;;;;;;4976519;28;20045;-83
2023/09/08 11:06:12;;;;;;;7.15;6.45;;;29.00;58.30;;;;;;4960287;28;20125;-81
2023/09/08 11:08:41;;;;;;;10.45;6.68;;;29.20;57.60;;;;;;4960605;28;20135;-82
2023/09/08 11:11:07;;;;;;;10.27;6.22;;;29.40;56.60;;;;;;4976387;28;20034;-80
2023/09/08 11:13:33;;;;;;;10.13;6.35;;;29.30;56.20;;;;;;4976628;28;20074;-83
2023/09/08 11:15:59;;;;;;;7.05;6.30;;;29.50;56.20;;;;;;4944560;28;20038;-82
2023/09/08 11:18:28;;;;;;;7.55;6.32;;;29.50;54.60;;;;;;4977019;28;20093;-82
2023/09/08 11:20:55;;;;;;;8.15;6.50;;;29.60;55.10;;;;;;4976329;28;20506;-83
2023/09/08 11:23:21;;;;;;;7.72;5.78;;;29.50;55.60;;;;;;4960588;28;20039;-81
2023/09/08 11:25:48;;;;;;;7.90;6.88;;;29.60;55.40;;;;;;4960812;28;20046;-79
2023/09/08 11:28:14;;;;;;;7.25;6.60;;;29.80;53.80;;;;;;4976917;28;20042;-80
2023/09/08 11:30:41;;;;;;;8.70;6.55;;;29.90;54.50;;;;;;4965115;28;20630;-81
2023/09/08 11:33:26;;;;;;;9.13;6.05;;;30.20;54.90;;;;;;4963763;28;20101;-80
2023/09/08 11:35:53;;;;;;;6.85;6.25;;;30.40;54.20;;;;;;4963924;28;20507;-83
2023/09/08 11:38:26;;;;;;;7.43;6.70;;;30.40;53.20;;;;;;4976936;28;20091;-83
2023/09/08 11:40:57;;;;;;;8.00;6.85;;;30.30;53.40;;;;;;4944881;28;20395;-82
2023/09/08 11:43:23;;;;;;;10.25;6.78;;;30.50;53.20;;;;;;4960486;28;20077;-81
2023/09/08 11:45:49;;;;;;;7.47;6.13;;;30.50;53.70;;;;;;4960279;28;20110;-79
2023/09/08 11:48:16;;;;;;;8.05;6.82;;;30.60;53.30;;;;;;4975966;28;20047;-80
2023/09/08 11:50:42;;;;;;;8.57;6.65;;;30.60;53.20;;;;;;4959803;28;20039;-80
2023/09/08 11:53:08;;;;;;;9.07;6.30;;;30.60;53.40;;;;;;4959774;28;20046;-80
2023/09/08 11:55:36;;;;;;;6.60;5.88;;;30.90;52.80;;;;;;4975844;28;20070;-80
2023/09/08 11:58:03;;;;;;;7.95;6.07;;;31.10;52.90;;;;;;4975157;28;20535;-84
2023/09/08 12:00:29;;;;;;;7.10;6.47;;;31.20;51.90;;;;;;4959141;28;20047;-83
2023/09/08 12:02:55;;;;;;;9.30;7.10;;;31.10;50.60;;;;;;4959963;28;20057;-84
2023/09/08 12:05:22;;;;;;;8.10;6.30;;;31.10;51.90;;;;;;4943393;28;20089;-83
2023/09/08 12:07:53;;;;;;;9.63;6.82;;;31.30;51.90;;;;;;4973308;28;20414;-82
2023/09/08 12:10:19;;;;;;;7.32;6.03;;;31.30;51.50;;;;;;4957077;29;20050;-84
2023/09/08 12:12:49;;;;;;;9.63;6.43;;;31.40;51.70;;;;;;4956772;28;20039;-83
2023/09/08 12:15:35;;;;;;;6.65;6.05;;;31.40;50.50;;;;;;4956608;29;20098;-78
2023/09/08 12:18:06;;;;;;;6.43;5.75;;;31.50;51.40;;;;;;4956696;29;20435;-79
2023/09/08 12:20:32;;;;;;;6.47;5.88;;;31.30;50.60;;;;;;4957401;29;20093;-79
2023/09/08 12:23:03;;;;;;;7.45;5.88;;;31.30;50.30;;;;;;4957046;28;20455;-80
2023/09/08 12:25:33;;;;;;;6.93;5.63;;;31.50;50.50;;;;;;4940878;29;20098;-79
2023/09/08 12:27:59;;;;;;;5.97;5.40;;;31.60;50.60;;;;;;4940844;29;20050;-78
2023/09/08 12:30:29;;;;;;;6.65;5.97;;;31.60;50.80;;;;;;4956803;29;20043;-80